East Concord, New York
Current Conditions -  °F | °C
As of 7:55 AM on Saturday 22 Nov 2014 (Local Time) from KOLE Reporting Station
Clear Clear  
Wind Chill:   Ceiling: Unl
Heat Index: 19°   Visibility: 10mi
Dew Point:   Wind: 9mph
Humidity: 63%   Direction: 210°SSW
Pressure: 30.19"   Gusts: NA
Location:  42.55°N, 78.64°W
Report Text: KOLE 221255Z AUTO 21008KT 10SM CLR M07/M13 A3019 RMK AO2
Loading
Personal Weather Stations






























Interactive Weather Map New forecast layout! Learn more

10-Day Weather Forecast

Advertisements
Track Severe Weather on mobile